sensor_id;sensor_type;location;lat;lon;timestamp;pressure;altitude;pressure_sealevel;temperature;humidity
19827;BME280;10074;52.018;4.726;2022-11-20T00:03:51;46461.88;;;-144.79;100.00
19827;BME280;10074;52.018;4.726;2022-11-20T00:08:54;46469.88;;;-144.79;100.00
19827;BME280;10074;52.018;4.726;2022-11-20T00:13:57;46467.88;;;-144.79;100.00
19827;BME280;10074;52.018;4.726;2022-11-20T00:18:59;46471.91;;;-144.79;100.00
19827;BME280;10074;52.018;4.726;2022-11-20T00:23:59;46471.91;;;-144.79;100.00
19827;BME280;10074;52.018;4.726;2022-11-20T00:29:01;46469.88;;;-144.79;100.00
19827;BME280;10074;52.018;4.726;2022-11-20T00:34:01;46467.88;;;-144.79;100.00
19827;BME280;10074;52.018;4.726;2022-11-20T00:39:02;46463.88;;;-144.79;100.00
19827;BME280;10074;52.018;4.726;2022-11-20T00:44:03;46469.88;;;-144.79;100.00
19827;BME280;10074;52.018;4.726;2022-11-20T00:49:03;46467.88;;;-144.79;100.00
19827;BME280;10074;52.018;4.726;2022-11-20T00:54:03;46463.88;;;-144.79;100.00
19827;BME280;10074;52.018;4.726;2022-11-20T00:59:03;46463.88;;;-144.79;100.00
19827;BME280;10074;52.018;4.726;2022-11-20T01:04:04;46467.88;;;-144.79;100.00
19827;BME280;10074;52.018;4.726;2022-11-20T01:09:07;46463.88;;;-144.79;100.00
19827;BME280;10074;52.018;4.726;2022-11-20T01:14:13;46469.88;;;-144.79;100.00
19827;BME280;10074;52.018;4.726;2022-11-20T01:19:19;46469.88;;;-144.79;100.00
19827;BME280;10074;52.018;4.726;2022-11-20T01:24:21;46467.88;;;-144.79;100.00
19827;BME280;10074;52.018;4.726;2022-11-20T01:29:23;46471.91;;;-144.79;100.00
19827;BME280;10074;52.018;4.726;2022-11-20T01:34:24;46463.88;;;-144.79;100.00
19827;BME280;10074;52.018;4.726;2022-11-20T01:39:26;46469.88;;;-144.79;100.00
19827;BME280;10074;52.018;4.726;2022-11-20T01:44:55;46471.91;;;-144.79;100.00
19827;BME280;10074;52.018;4.726;2022-11-20T01:50:01;46467.88;;;-144.79;100.00
19827;BME280;10074;52.018;4.726;2022-11-20T01:55:09;46465.88;;;-144.79;100.00
19827;BME280;10074;52.018;4.726;2022-11-20T02:00:14;46461.88;;;-144.79;100.00
19827;BME280;10074;52.018;4.726;2022-11-20T02:05:21;46463.88;;;-144.79;100.00
19827;BME280;10074;52.018;4.726;2022-11-20T02:10:24;46469.88;;;-144.79;100.00
19827;BME280;10074;52.018;4.726;2022-11-20T02:15:25;46463.88;;;-144.79;100.00
19827;BME280;10074;52.018;4.726;2022-11-20T02:20:26;46469.88;;;-144.79;100.00
19827;BME280;10074;52.018;4.726;2022-11-20T02:25:27;46463.88;;;-144.79;100.00
19827;BME280;10074;52.018;4.726;2022-11-20T02:30:28;46461.88;;;-144.79;100.00
19827;BME280;10074;52.018;4.726;2022-11-20T02:40:29;46471.91;;;-144.79;100.00
19827;BME280;10074;52.018;4.726;2022-11-20T02:45:29;46467.88;;;-144.79;100.00
19827;BME280;10074;52.018;4.726;2022-11-20T02:50:30;46463.88;;;-144.79;100.00
19827;BME280;10074;52.018;4.726;2022-11-20T02:55:30;46467.88;;;-144.79;100.00
19827;BME280;10074;52.018;4.726;2022-11-20T03:00:31;46463.88;;;-144.79;100.00
19827;BME280;10074;52.018;4.726;2022-11-20T03:05:32;46467.88;;;-144.79;100.00
19827;BME280;10074;52.018;4.726;2022-11-20T03:10:33;46471.91;;;-144.79;100.00
19827;BME280;10074;52.018;4.726;2022-11-20T03:15:36;46465.88;;;-144.79;100.00
19827;BME280;10074;52.018;4.726;2022-11-20T03:20:36;46467.88;;;-144.79;100.00
19827;BME280;10074;52.018;4.726;2022-11-20T03:25:36;46471.91;;;-144.79;100.00
19827;BME280;10074;52.018;4.726;2022-11-20T03:30:37;46459.88;;;-144.79;100.00
19827;BME280;10074;52.018;4.726;2022-11-20T03:35:37;46471.91;;;-144.79;100.00
19827;BME280;10074;52.018;4.726;2022-11-20T03:40:37;46467.88;;;-144.79;100.00
19827;BME280;10074;52.018;4.726;2022-11-20T03:45:38;46467.88;;;-144.79;100.00
19827;BME280;10074;52.018;4.726;2022-11-20T03:50:38;46467.88;;;-144.79;100.00
19827;BME280;10074;52.018;4.726;2022-11-20T03:55:38;46465.88;;;-144.79;100.00
19827;BME280;10074;52.018;4.726;2022-11-20T04:00:38;46467.88;;;-144.79;100.00
19827;BME280;10074;52.018;4.726;2022-11-20T04:05:39;46473.91;;;-144.79;100.00
19827;BME280;10074;52.018;4.726;2022-11-20T04:10:39;46471.91;;;-144.79;100.00
19827;BME280;10074;52.018;4.726;2022-11-20T04:15:39;46457.88;;;-144.79;100.00
19827;BME280;10074;52.018;4.726;2022-11-20T04:20:40;46463.88;;;-144.79;100.00
19827;BME280;10074;52.018;4.726;2022-11-20T04:25:41;46463.88;;;-144.79;100.00
19827;BME280;10074;52.018;4.726;2022-11-20T04:30:41;46471.91;;;-144.79;100.00
19827;BME280;10074;52.018;4.726;2022-11-20T04:35:48;46469.88;;;-144.79;100.00
19827;BME280;10074;52.018;4.726;2022-11-20T04:40:48;46471.91;;;-144.79;100.00
19827;BME280;10074;52.018;4.726;2022-11-20T04:45:56;46469.88;;;-144.79;100.00
19827;BME280;10074;52.018;4.726;2022-11-20T04:50:57;46473.91;;;-144.79;100.00
19827;BME280;10074;52.018;4.726;2022-11-20T04:56:05;46467.88;;;-144.79;100.00
19827;BME280;10074;52.018;4.726;2022-11-20T05:01:11;46465.88;;;-144.79;100.00
19827;BME280;10074;52.018;4.726;2022-11-20T05:06:15;46467.88;;;-144.79;100.00
19827;BME280;10074;52.018;4.726;2022-11-20T05:11:19;46465.88;;;-144.79;100.00
19827;BME280;10074;52.018;4.726;2022-11-20T05:16:22;46461.88;;;-144.79;100.00
19827;BME280;10074;52.018;4.726;2022-11-20T05:21:22;46469.88;;;-144.79;100.00
19827;BME280;10074;52.018;4.726;2022-11-20T05:26:23;46463.88;;;-144.79;100.00
19827;BME280;10074;52.018;4.726;2022-11-20T05:31:24;46465.88;;;-144.79;100.00
19827;BME280;10074;52.018;4.726;2022-11-20T05:36:25;46471.91;;;-144.79;100.00
19827;BME280;10074;52.018;4.726;2022-11-20T05:41:25;46463.88;;;-144.79;100.00
19827;BME280;10074;52.018;4.726;2022-11-20T05:46:26;46469.88;;;-144.79;100.00
19827;BME280;10074;52.018;4.726;2022-11-20T05:51:27;46473.91;;;-144.79;100.00
19827;BME280;10074;52.018;4.726;2022-11-20T05:56:27;46467.88;;;-144.79;100.00
19827;BME280;10074;52.018;4.726;2022-11-20T06:01:28;46467.88;;;-144.79;100.00
19827;BME280;10074;52.018;4.726;2022-11-20T06:06:28;46471.91;;;-144.79;100.00
19827;BME280;10074;52.018;4.726;2022-11-20T06:11:28;46469.88;;;-144.79;100.00
19827;BME280;10074;52.018;4.726;2022-11-20T06:16:29;46467.88;;;-144.79;100.00
19827;BME280;10074;52.018;4.726;2022-11-20T06:21:29;46463.88;;;-144.79;100.00
19827;BME280;10074;52.018;4.726;2022-11-20T06:26:30;46463.88;;;-144.79;100.00
19827;BME280;10074;52.018;4.726;2022-11-20T06:31:30;46465.88;;;-144.79;100.00
19827;BME280;10074;52.018;4.726;2022-11-20T06:36:35;46471.91;;;-144.79;100.00
19827;BME280;10074;52.018;4.726;2022-11-20T06:41:35;46465.88;;;-144.79;100.00
19827;BME280;10074;52.018;4.726;2022-11-20T06:46:36;46467.88;;;-144.79;100.00
19827;BME280;10074;52.018;4.726;2022-11-20T06:51:36;46469.88;;;-144.79;100.00
19827;BME280;10074;52.018;4.726;2022-11-20T06:56:36;46469.88;;;-144.79;100.00
19827;BME280;10074;52.018;4.726;2022-11-20T07:01:36;46469.88;;;-144.79;100.00
19827;BME280;10074;52.018;4.726;2022-11-20T07:06:37;46467.88;;;-144.79;100.00
19827;BME280;10074;52.018;4.726;2022-11-20T07:11:37;46469.88;;;-144.79;100.00
19827;BME280;10074;52.018;4.726;2022-11-20T07:16:38;46469.88;;;-144.79;100.00
19827;BME280;10074;52.018;4.726;2022-11-20T07:21:38;46469.88;;;-144.79;100.00
19827;BME280;10074;52.018;4.726;2022-11-20T07:26:39;46469.88;;;-144.79;100.00
19827;BME280;10074;52.018;4.726;2022-11-20T07:31:39;46467.88;;;-144.79;100.00
19827;BME280;10074;52.018;4.726;2022-11-20T07:36:39;46471.91;;;-144.79;100.00
19827;BME280;10074;52.018;4.726;2022-11-20T07:41:40;46467.88;;;-144.79;100.00
19827;BME280;10074;52.018;4.726;2022-11-20T07:46:40;46473.91;;;-144.79;100.00
19827;BME280;10074;52.018;4.726;2022-11-20T07:51:40;46471.91;;;-144.79;100.00
19827;BME280;10074;52.018;4.726;2022-11-20T07:56:42;46471.91;;;-144.79;100.00
19827;BME280;10074;52.018;4.726;2022-11-20T08:01:45;46465.88;;;-144.79;100.00
19827;BME280;10074;52.018;4.726;2022-11-20T08:06:45;46477.91;;;-144.79;100.00
19827;BME280;10074;52.018;4.726;2022-11-20T08:11:46;46473.91;;;-144.79;100.00
19827;BME280;10074;52.018;4.726;2022-11-20T08:17:07;46475.91;;;-144.79;100.00
19827;BME280;10074;52.018;4.726;2022-11-20T08:22:08;46471.91;;;-144.79;100.00
19827;BME280;10074;52.018;4.726;2022-11-20T08:27:08;46471.91;;;-144.79;100.00
19827;BME280;10074;52.018;4.726;2022-11-20T08:32:08;46471.91;;;-144.79;100.00
19827;BME280;10074;52.018;4.726;2022-11-20T08:37:09;46471.91;;;-144.79;100.00
19827;BME280;10074;52.018;4.726;2022-11-20T08:42:09;46479.91;;;-144.79;100.00
19827;BME280;10074;52.018;4.726;2022-11-20T08:47:10;46477.91;;;-144.79;100.00
19827;BME280;10074;52.018;4.726;2022-11-20T08:52:10;46475.91;;;-144.79;100.00
19827;BME280;10074;52.018;4.726;2022-11-20T08:57:10;46475.91;;;-144.79;100.00
19827;BME280;10074;52.018;4.726;2022-11-20T09:02:11;46475.91;;;-144.79;100.00
19827;BME280;10074;52.018;4.726;2022-11-20T09:07:13;46477.91;;;-144.79;100.00
19827;BME280;10074;52.018;4.726;2022-11-20T09:12:13;46475.91;;;-144.79;100.00
19827;BME280;10074;52.018;4.726;2022-11-20T09:17:13;46479.91;;;-144.79;100.00
19827;BME280;10074;52.018;4.726;2022-11-20T09:22:14;46475.91;;;-144.79;100.00
19827;BME280;10074;52.018;4.726;2022-11-20T09:27:15;46479.91;;;-144.79;100.00
19827;BME280;10074;52.018;4.726;2022-11-20T09:32:20;46475.91;;;-144.79;100.00
19827;BME280;10074;52.018;4.726;2022-11-20T09:37:20;46471.91;;;-144.79;100.00
19827;BME280;10074;52.018;4.726;2022-11-20T10:03:30;46475.91;;;-144.79;100.00
19827;BME280;10074;52.018;4.726;2022-11-20T10:09:00;46475.91;;;-144.79;100.00
19827;BME280;10074;52.018;4.726;2022-11-20T10:14:15;46471.91;;;-144.79;100.00
19827;BME280;10074;52.018;4.726;2022-11-20T10:19:36;46471.91;;;-144.79;100.00
19827;BME280;10074;52.018;4.726;2022-11-20T10:30:11;46469.88;;;-144.79;100.00
19827;BME280;10074;52.018;4.726;2022-11-20T10:40:42;46465.88;;;-144.79;100.00
19827;BME280;10074;52.018;4.726;2022-11-20T10:45:49;46473.91;;;-144.79;100.00
19827;BME280;10074;52.018;4.726;2022-11-20T10:51:04;46471.91;;;-144.79;100.00
19827;BME280;10074;52.018;4.726;2022-11-20T10:56:20;46469.88;;;-144.79;100.00
19827;BME280;10074;52.018;4.726;2022-11-20T11:01:22;46469.88;;;-144.79;100.00
19827;BME280;10074;52.018;4.726;2022-11-20T11:06:36;46475.91;;;-144.79;100.00
19827;BME280;10074;52.018;4.726;2022-11-20T11:11:39;46469.88;;;-144.79;100.00
19827;BME280;10074;52.018;4.726;2022-11-20T11:16:50;46471.91;;;-144.79;100.00
19827;BME280;10074;52.018;4.726;2022-11-20T11:21:54;46475.91;;;-144.79;100.00
19827;BME280;10074;52.018;4.726;2022-11-20T11:27:03;46475.91;;;-144.79;100.00
19827;BME280;10074;52.018;4.726;2022-11-20T11:32:20;46475.91;;;-144.79;100.00
19827;BME280;10074;52.018;4.726;2022-11-20T11:37:21;46471.91;;;-144.79;100.00
19827;BME280;10074;52.018;4.726;2022-11-20T11:42:22;46475.91;;;-144.79;100.00
19827;BME280;10074;52.018;4.726;2022-11-20T11:47:34;46475.91;;;-144.79;100.00
19827;BME280;10074;52.018;4.726;2022-11-20T11:52:56;46479.91;;;-144.79;100.00
19827;BME280;10074;52.018;4.726;2022-11-20T11:58:33;46467.88;;;-144.79;100.00
19827;BME280;10074;52.018;4.726;2022-11-20T12:03:37;46469.88;;;-144.79;100.00
19827;BME280;10074;52.018;4.726;2022-11-20T12:08:52;46475.91;;;-144.79;100.00
19827;BME280;10074;52.018;4.726;2022-11-20T12:13:57;46471.91;;;-144.79;100.00
19827;BME280;10074;52.018;4.726;2022-11-20T12:18:58;46471.91;;;-144.79;100.00
19827;BME280;10074;52.018;4.726;2022-11-20T12:24:28;46471.91;;;-144.79;100.00
19827;BME280;10074;52.018;4.726;2022-11-20T12:45:50;46469.88;;;-144.79;100.00
19827;BME280;10074;52.018;4.726;2022-11-20T13:02:09;46473.91;;;-144.79;100.00
19827;BME280;10074;52.018;4.726;2022-11-20T13:07:17;46469.88;;;-144.79;100.00
19827;BME280;10074;52.018;4.726;2022-11-20T13:12:49;46473.91;;;-144.79;100.00
19827;BME280;10074;52.018;4.726;2022-11-20T13:18:00;46467.88;;;-144.79;100.00
19827;BME280;10074;52.018;4.726;2022-11-20T13:23:01;46469.88;;;-144.79;100.00
19827;BME280;10074;52.018;4.726;2022-11-20T13:33:34;46473.91;;;-144.79;100.00
19827;BME280;10074;52.018;4.726;2022-11-20T13:38:50;46475.91;;;-144.79;100.00
19827;BME280;10074;52.018;4.726;2022-11-20T13:43:52;46473.91;;;-144.79;100.00
19827;BME280;10074;52.018;4.726;2022-11-20T13:48:52;46471.91;;;-144.79;100.00
19827;BME280;10074;52.018;4.726;2022-11-20T13:59:32;46471.91;;;-144.79;100.00
19827;BME280;10074;52.018;4.726;2022-11-20T14:04:42;46469.88;;;-144.79;100.00
19827;BME280;10074;52.018;4.726;2022-11-20T14:09:54;46473.91;;;-144.79;100.00
19827;BME280;10074;52.018;4.726;2022-11-20T14:14:55;46477.91;;;-144.79;100.00
19827;BME280;10074;52.018;4.726;2022-11-20T14:20:04;46473.91;;;-144.79;100.00
19827;BME280;10074;52.018;4.726;2022-11-20T14:30:20;46475.91;;;-144.79;100.00
19827;BME280;10074;52.018;4.726;2022-11-20T14:35:24;46473.91;;;-144.79;100.00
19827;BME280;10074;52.018;4.726;2022-11-20T14:40:34;46477.91;;;-144.79;100.00
19827;BME280;10074;52.018;4.726;2022-11-20T14:45:35;46479.91;;;-144.79;100.00
19827;BME280;10074;52.018;4.726;2022-11-20T14:50:38;46479.91;;;-144.79;100.00
19827;BME280;10074;52.018;4.726;2022-11-20T14:55:38;46471.91;;;-144.79;100.00
19827;BME280;10074;52.018;4.726;2022-11-20T15:00:39;46477.91;;;-144.79;100.00
19827;BME280;10074;52.018;4.726;2022-11-20T15:05:48;46471.91;;;-144.79;100.00
19827;BME280;10074;52.018;4.726;2022-11-20T15:10:51;46475.91;;;-144.79;100.00
19827;BME280;10074;52.018;4.726;2022-11-20T15:15:54;46475.91;;;-144.79;100.00
19827;BME280;10074;52.018;4.726;2022-11-20T15:20:56;46477.91;;;-144.79;100.00
19827;BME280;10074;52.018;4.726;2022-11-20T15:25:57;46475.91;;;-144.79;100.00
19827;BME280;10074;52.018;4.726;2022-11-20T15:30:58;46475.91;;;-144.79;100.00
19827;BME280;10074;52.018;4.726;2022-11-20T15:36:00;46475.91;;;-144.79;100.00
19827;BME280;10074;52.018;4.726;2022-11-20T15:41:00;46477.91;;;-144.79;100.00
19827;BME280;10074;52.018;4.726;2022-11-20T15:46:03;46473.91;;;-144.79;100.00
19827;BME280;10074;52.018;4.726;2022-11-20T15:56:12;46469.88;;;-144.79;100.00
19827;BME280;10074;52.018;4.726;2022-11-20T16:01:18;46475.91;;;-144.79;100.00
19827;BME280;10074;52.018;4.726;2022-11-20T16:06:20;46471.91;;;-144.79;100.00
19827;BME280;10074;52.018;4.726;2022-11-20T16:11:20;46475.91;;;-144.79;100.00
19827;BME280;10074;52.018;4.726;2022-11-20T16:16:22;46475.91;;;-144.79;100.00
19827;BME280;10074;52.018;4.726;2022-11-20T16:21:23;46479.91;;;-144.79;100.00
19827;BME280;10074;52.018;4.726;2022-11-20T16:26:31;46477.91;;;-144.79;100.00
19827;BME280;10074;52.018;4.726;2022-11-20T16:31:31;46475.91;;;-144.79;100.00
19827;BME280;10074;52.018;4.726;2022-11-20T16:36:32;46473.91;;;-144.79;100.00
19827;BME280;10074;52.018;4.726;2022-11-20T16:41:33;46471.91;;;-144.79;100.00
19827;BME280;10074;52.018;4.726;2022-11-20T16:46:34;46477.91;;;-144.79;100.00
19827;BME280;10074;52.018;4.726;2022-11-20T16:51:35;46475.91;;;-144.79;100.00
19827;BME280;10074;52.018;4.726;2022-11-20T16:56:36;46479.91;;;-144.79;100.00
19827;BME280;10074;52.018;4.726;2022-11-20T17:01:36;46479.91;;;-144.79;100.00
19827;BME280;10074;52.018;4.726;2022-11-20T17:06:41;46475.91;;;-144.79;100.00
19827;BME280;10074;52.018;4.726;2022-11-20T17:11:43;46479.91;;;-144.79;100.00
19827;BME280;10074;52.018;4.726;2022-11-20T17:16:44;46475.91;;;-144.79;100.00
19827;BME280;10074;52.018;4.726;2022-11-20T17:21:45;46481.91;;;-144.79;100.00
19827;BME280;10074;52.018;4.726;2022-11-20T17:26:47;46479.91;;;-144.79;100.00
19827;BME280;10074;52.018;4.726;2022-11-20T17:31:47;46479.91;;;-144.79;100.00
19827;BME280;10074;52.018;4.726;2022-11-20T17:36:48;46475.91;;;-144.79;100.00
19827;BME280;10074;52.018;4.726;2022-11-20T17:41:48;46477.91;;;-144.79;100.00
19827;BME280;10074;52.018;4.726;2022-11-20T17:47:09;46473.91;;;-144.79;100.00
19827;BME280;10074;52.018;4.726;2022-11-20T17:52:09;46477.91;;;-144.79;100.00
19827;BME280;10074;52.018;4.726;2022-11-20T17:57:09;46475.91;;;-144.79;100.00
19827;BME280;10074;52.018;4.726;2022-11-20T18:02:28;46475.91;;;-144.79;100.00
19827;BME280;10074;52.018;4.726;2022-11-20T18:07:28;46479.91;;;-144.79;100.00
19827;BME280;10074;52.018;4.726;2022-11-20T18:12:29;46475.91;;;-144.79;100.00
19827;BME280;10074;52.018;4.726;2022-11-20T18:17:29;46475.91;;;-144.79;100.00
19827;BME280;10074;52.018;4.726;2022-11-20T18:22:29;46475.91;;;-144.79;100.00
19827;BME280;10074;52.018;4.726;2022-11-20T18:27:30;46471.91;;;-144.79;100.00
19827;BME280;10074;52.018;4.726;2022-11-20T18:32:30;46477.91;;;-144.79;100.00
19827;BME280;10074;52.018;4.726;2022-11-20T18:37:30;46475.91;;;-144.79;100.00
19827;BME280;10074;52.018;4.726;2022-11-20T18:42:31;46475.91;;;-144.79;100.00
19827;BME280;10074;52.018;4.726;2022-11-20T18:47:49;46475.91;;;-144.79;100.00
19827;BME280;10074;52.018;4.726;2022-11-20T18:52:50;46473.91;;;-144.79;100.00
19827;BME280;10074;52.018;4.726;2022-11-20T18:57:50;46479.91;;;-144.79;100.00
19827;BME280;10074;52.018;4.726;2022-11-20T19:02:53;46475.91;;;-144.79;100.00
19827;BME280;10074;52.018;4.726;2022-11-20T19:07:54;46471.91;;;-144.79;100.00
19827;BME280;10074;52.018;4.726;2022-11-20T19:12:54;46473.91;;;-144.79;100.00
19827;BME280;10074;52.018;4.726;2022-11-20T19:17:54;46477.91;;;-144.79;100.00
19827;BME280;10074;52.018;4.726;2022-11-20T19:22:56;46481.91;;;-144.79;100.00
19827;BME280;10074;52.018;4.726;2022-11-20T19:27:58;46473.91;;;-144.79;100.00
19827;BME280;10074;52.018;4.726;2022-11-20T19:32:58;46473.91;;;-144.79;100.00
19827;BME280;10074;52.018;4.726;2022-11-20T19:37:58;46475.91;;;-144.79;100.00
19827;BME280;10074;52.018;4.726;2022-11-20T19:42:59;46475.91;;;-144.79;100.00
19827;BME280;10074;52.018;4.726;2022-11-20T19:47:59;46477.91;;;-144.79;100.00
19827;BME280;10074;52.018;4.726;2022-11-20T19:52:59;46475.91;;;-144.79;100.00
19827;BME280;10074;52.018;4.726;2022-11-20T19:57:59;46473.91;;;-144.79;100.00
19827;BME280;10074;52.018;4.726;2022-11-20T20:03:01;46475.91;;;-144.79;100.00
19827;BME280;10074;52.018;4.726;2022-11-20T20:08:02;46477.91;;;-144.79;100.00
19827;BME280;10074;52.018;4.726;2022-11-20T20:13:02;46477.91;;;-144.79;100.00
19827;BME280;10074;52.018;4.726;2022-11-20T20:18:03;46479.91;;;-144.79;100.00
19827;BME280;10074;52.018;4.726;2022-11-20T20:23:03;46475.91;;;-144.79;100.00
19827;BME280;10074;52.018;4.726;2022-11-20T20:28:06;46479.91;;;-144.79;100.00
19827;BME280;10074;52.018;4.726;2022-11-20T20:33:06;46473.91;;;-144.79;100.00
19827;BME280;10074;52.018;4.726;2022-11-20T20:38:07;46475.91;;;-144.79;100.00
19827;BME280;10074;52.018;4.726;2022-11-20T20:43:07;46479.91;;;-144.79;100.00
19827;BME280;10074;52.018;4.726;2022-11-20T20:48:08;46479.91;;;-144.79;100.00
19827;BME280;10074;52.018;4.726;2022-11-20T20:53:08;46473.91;;;-144.79;100.00
19827;BME280;10074;52.018;4.726;2022-11-20T20:58:10;46475.91;;;-144.79;100.00
19827;BME280;10074;52.018;4.726;2022-11-20T21:03:10;46471.91;;;-144.79;100.00
19827;BME280;10074;52.018;4.726;2022-11-20T21:08:11;46475.91;;;-144.79;100.00
19827;BME280;10074;52.018;4.726;2022-11-20T21:13:22;46475.91;;;-144.79;100.00
19827;BME280;10074;52.018;4.726;2022-11-20T21:18:23;46473.91;;;-144.79;100.00
19827;BME280;10074;52.018;4.726;2022-11-20T21:23:23;46473.91;;;-144.79;100.00
19827;BME280;10074;52.018;4.726;2022-11-20T21:28:24;46475.91;;;-144.79;100.00
19827;BME280;10074;52.018;4.726;2022-11-20T21:33:24;46479.91;;;-144.79;100.00
19827;BME280;10074;52.018;4.726;2022-11-20T21:38:24;46475.91;;;-144.79;100.00
19827;BME280;10074;52.018;4.726;2022-11-20T21:43:25;46469.88;;;-144.79;100.00
19827;BME280;10074;52.018;4.726;2022-11-20T21:48:29;46473.91;;;-144.79;100.00
19827;BME280;10074;52.018;4.726;2022-11-20T21:53:30;46473.91;;;-144.79;100.00
19827;BME280;10074;52.018;4.726;2022-11-20T21:58:32;46473.91;;;-144.79;100.00
19827;BME280;10074;52.018;4.726;2022-11-20T22:03:32;46475.91;;;-144.79;100.00
19827;BME280;10074;52.018;4.726;2022-11-20T22:08:34;46467.88;;;-144.79;100.00
19827;BME280;10074;52.018;4.726;2022-11-20T22:13:35;46469.88;;;-144.79;100.00
19827;BME280;10074;52.018;4.726;2022-11-20T22:18:55;46473.91;;;-144.79;100.00
19827;BME280;10074;52.018;4.726;2022-11-20T22:23:57;46473.91;;;-144.79;100.00
19827;BME280;10074;52.018;4.726;2022-11-20T22:28:58;46473.91;;;-144.79;100.00
19827;BME280;10074;52.018;4.726;2022-11-20T22:34:00;46473.91;;;-144.79;100.00
19827;BME280;10074;52.018;4.726;2022-11-20T22:39:04;46475.91;;;-144.79;100.00
19827;BME280;10074;52.018;4.726;2022-11-20T22:44:06;46473.91;;;-144.79;100.00
19827;BME280;10074;52.018;4.726;2022-11-20T22:49:08;46471.91;;;-144.79;100.00
19827;BME280;10074;52.018;4.726;2022-11-20T22:54:11;46473.91;;;-144.79;100.00
19827;BME280;10074;52.018;4.726;2022-11-20T22:59:12;46475.91;;;-144.79;100.00
19827;BME280;10074;52.018;4.726;2022-11-20T23:04:12;46467.88;;;-144.79;100.00
19827;BME280;10074;52.018;4.726;2022-11-20T23:09:13;46467.88;;;-144.79;100.00
19827;BME280;10074;52.018;4.726;2022-11-20T23:14:14;46469.88;;;-144.79;100.00
19827;BME280;10074;52.018;4.726;2022-11-20T23:19:15;46473.91;;;-144.79;100.00
19827;BME280;10074;52.018;4.726;2022-11-20T23:24:15;46467.88;;;-144.79;100.00
19827;BME280;10074;52.018;4.726;2022-11-20T23:29:16;46475.91;;;-144.79;100.00
19827;BME280;10074;52.018;4.726;2022-11-20T23:34:16;46475.91;;;-144.79;100.00
19827;BME280;10074;52.018;4.726;2022-11-20T23:39:16;46475.91;;;-144.79;100.00
19827;BME280;10074;52.018;4.726;2022-11-20T23:44:17;46471.91;;;-144.79;100.00
19827;BME280;10074;52.018;4.726;2022-11-20T23:49:17;46471.91;;;-144.79;100.00
19827;BME280;10074;52.018;4.726;2022-11-20T23:54:17;46469.88;;;-144.79;100.00
19827;BME280;10074;52.018;4.726;2022-11-20T23:59:19;46469.88;;;-144.79;100.00
